UAL2995 KSAN-KLAX
Flight info
| Callsign | UAL2995 |
|---|---|
| Flight time | 0h 25m |
| Altitude | 10000 |
| Route | CWARD2 SLI |
| Aircraft | B752/M-VGDW/C |
Departure
| Time | 2026-05-04 03:15 |
|---|---|
| Airport | San Diego International Airport (KSAN) |
Arrival
| Time | 2026-05-04 03:40 |
|---|---|
| Airport | Los Angeles International Airport (KLAX) |
| Time | Latitude | Longitude | Altitude | Speed | Heading |
|---|---|---|---|---|---|
| 2026-05-04 02:44 | 32.73453 | -117.20348 | 29 ft | 0 kts | 230° |
| 2026-05-04 02:59 | 32.73461 | -117.20336 | 29 ft | 4 kts | 230° |
| 2026-05-04 02:59 | 32.73475 | -117.20316 | 29 ft | 2 kts | 227° |
| 2026-05-04 02:59 | 32.73486 | -117.20305 | 29 ft | 2 kts | 210° |
| 2026-05-04 03:00 | 32.73498 | -117.20300 | 28 ft | 1 kts | 185° |
| 2026-05-04 03:00 | 32.73510 | -117.20300 | 29 ft | 1 kts | 163° |
| 2026-05-04 03:00 | 32.73521 | -117.20306 | 29 ft | 1 kts | 143° |
| 2026-05-04 03:00 | 32.73526 | -117.20311 | 29 ft | 0 kts | 140° |
| 2026-05-04 03:03 | 32.73524 | -117.20309 | 28 ft | 1 kts | 140° |
| 2026-05-04 03:03 | 32.73506 | -117.20291 | 29 ft | 4 kts | 140° |
| 2026-05-04 03:03 | 32.73500 | -117.20285 | 29 ft | 0 kts | 140° |
| 2026-05-04 03:05 | 32.73499 | -117.20283 | 29 ft | 1 kts | 140° |
| 2026-05-04 03:05 | 32.73483 | -117.20258 | 29 ft | 4 kts | 90° |
| 2026-05-04 03:05 | 32.73494 | -117.20187 | 29 ft | 9 kts | 57° |
| 2026-05-04 03:06 | 32.73514 | -117.20152 | 29 ft | 0 kts | 67° |
| 2026-05-04 03:06 | 32.73516 | -117.20147 | 29 ft | 3 kts | 67° |
| 2026-05-04 03:07 | 32.73525 | -117.20103 | 29 ft | 8 kts | 91° |
| 2026-05-04 03:07 | 32.73511 | -117.20031 | 29 ft | 8 kts | 106° |
| 2026-05-04 03:07 | 32.73493 | -117.19957 | 29 ft | 9 kts | 106° |
| 2026-05-04 03:07 | 32.73472 | -117.19868 | 29 ft | 14 kts | 106° |
| 2026-05-04 03:08 | 32.73441 | -117.19743 | 29 ft | 16 kts | 107° |
| 2026-05-04 03:08 | 32.73407 | -117.19604 | 29 ft | 17 kts | 104° |
| 2026-05-04 03:08 | 32.73372 | -117.19455 | 28 ft | 18 kts | 105° |
| 2026-05-04 03:08 | 32.73343 | -117.19331 | 28 ft | 0 kts | 106° |
| 2026-05-04 03:09 | 32.73339 | -117.19315 | 29 ft | 3 kts | 106° |
| 2026-05-04 03:09 | 32.73330 | -117.19277 | 29 ft | 5 kts | 106° |
| 2026-05-04 03:09 | 32.73317 | -117.19224 | 29 ft | 7 kts | 106° |
| 2026-05-04 03:09 | 32.73297 | -117.19141 | 28 ft | 14 kts | 106° |
| 2026-05-04 03:10 | 32.73268 | -117.19019 | 29 ft | 14 kts | 105° |
| 2026-05-04 03:10 | 32.73239 | -117.18898 | 29 ft | 15 kts | 106° |
| 2026-05-04 03:10 | 32.73206 | -117.18767 | 29 ft | 16 kts | 107° |
| 2026-05-04 03:10 | 32.73170 | -117.18621 | 29 ft | 18 kts | 106° |
| 2026-05-04 03:11 | 32.73132 | -117.18467 | 28 ft | 19 kts | 105° |
| 2026-05-04 03:11 | 32.73095 | -117.18313 | 29 ft | 18 kts | 107° |
| 2026-05-04 03:11 | 32.73061 | -117.18169 | 29 ft | 16 kts | 106° |
| 2026-05-04 03:11 | 32.73027 | -117.18035 | 28 ft | 15 kts | 106° |
| 2026-05-04 03:12 | 32.73000 | -117.17911 | 29 ft | 14 kts | 105° |
| 2026-05-04 03:12 | 32.72973 | -117.17798 | 29 ft | 13 kts | 107° |
| 2026-05-04 03:12 | 32.72956 | -117.17732 | 29 ft | 6 kts | 107° |
| 2026-05-04 03:12 | 32.72953 | -117.17693 | 28 ft | 2 kts | 88° |
| 2026-05-04 03:13 | 32.72959 | -117.17635 | 29 ft | 9 kts | 82° |
| 2026-05-04 03:13 | 32.73000 | -117.17566 | 29 ft | 7 kts | 345° |
| 2026-05-04 03:13 | 32.73021 | -117.17599 | 28 ft | 0 kts | 290° |
| 2026-05-04 03:14 | 32.73044 | -117.17679 | 29 ft | 25 kts | 287° |
| 2026-05-04 03:14 | 32.73161 | -117.18180 | 29 ft | 102 kts | 285° |
| 2026-05-04 03:15 | 32.73440 | -117.19324 | 149 ft | 169 kts | 286° |
| 2026-05-04 03:15 | 32.73741 | -117.20629 | 1318 ft | 163 kts | 289° |
| 2026-05-04 03:15 | 32.74492 | -117.21830 | 2026 ft | 195 kts | 313° |
| 2026-05-04 03:15 | 32.75491 | -117.23164 | 2671 ft | 220 kts | 305° |
| 2026-05-04 03:16 | 32.76403 | -117.24657 | 3310 ft | 220 kts | 302° |
| 2026-05-04 03:16 | 32.77289 | -117.26223 | 3962 ft | 225 kts | 306° |
| 2026-05-04 03:16 | 32.78596 | -117.27363 | 4634 ft | 234 kts | 339° |
| 2026-05-04 03:16 | 32.80290 | -117.27460 | 5320 ft | 243 kts | 8° |
| 2026-05-04 03:17 | 32.81977 | -117.26963 | 5970 ft | 247 kts | 11° |
| 2026-05-04 03:17 | 32.83712 | -117.26423 | 6623 ft | 251 kts | 11° |
| 2026-05-04 03:17 | 32.85429 | -117.25886 | 7260 ft | 255 kts | 11° |
| 2026-05-04 03:17 | 32.87217 | -117.25322 | 7914 ft | 258 kts | 11° |
| 2026-05-04 03:18 | 32.89007 | -117.24859 | 8556 ft | 257 kts | 357° |
| 2026-05-04 03:18 | 32.90747 | -117.25306 | 9235 ft | 245 kts | 324° |
| 2026-05-04 03:18 | 32.91943 | -117.26704 | 9890 ft | 234 kts | 293° |
| 2026-05-04 03:18 | 32.92357 | -117.28638 | 10024 ft | 236 kts | 266° |
| 2026-05-04 03:19 | 32.92431 | -117.30621 | 9995 ft | 235 kts | 282° |
| 2026-05-04 03:19 | 32.93195 | -117.32526 | 10019 ft | 263 kts | 294° |
| 2026-05-04 03:19 | 32.94087 | -117.34646 | 10006 ft | 290 kts | 290° |
| 2026-05-04 03:19 | 32.94951 | -117.37027 | 10003 ft | 315 kts | 289° |
| 2026-05-04 03:20 | 32.95815 | -117.39550 | 9993 ft | 320 kts | 288° |
| 2026-05-04 03:20 | 32.96668 | -117.42116 | 9992 ft | 322 kts | 288° |
| 2026-05-04 03:20 | 32.97507 | -117.44688 | 9991 ft | 323 kts | 288° |
| 2026-05-04 03:20 | 32.98342 | -117.47272 | 9990 ft | 324 kts | 288° |
| 2026-05-04 03:21 | 32.99176 | -117.49866 | 9989 ft | 324 kts | 288° |
| 2026-05-04 03:21 | 33.00007 | -117.52460 | 9988 ft | 325 kts | 288° |
| 2026-05-04 03:21 | 33.00830 | -117.55034 | 9986 ft | 325 kts | 288° |
| 2026-05-04 03:21 | 33.01655 | -117.57638 | 9984 ft | 325 kts | 287° |
| 2026-05-04 03:22 | 33.02472 | -117.60284 | 9982 ft | 326 kts | 287° |
| 2026-05-04 03:22 | 33.03268 | -117.62895 | 9980 ft | 326 kts | 287° |
| 2026-05-04 03:22 | 33.04076 | -117.65512 | 9980 ft | 326 kts | 287° |
| 2026-05-04 03:22 | 33.04894 | -117.68123 | 9981 ft | 327 kts | 287° |
| 2026-05-04 03:23 | 33.05723 | -117.70744 | 9980 ft | 327 kts | 289° |
| 2026-05-04 03:23 | 33.06886 | -117.73188 | 9982 ft | 333 kts | 305° |
| 2026-05-04 03:23 | 33.08625 | -117.75224 | 9981 ft | 337 kts | 316° |
| 2026-05-04 03:23 | 33.10446 | -117.77075 | 9971 ft | 337 kts | 316° |
| 2026-05-04 03:24 | 33.12309 | -117.78980 | 9966 ft | 338 kts | 316° |
| 2026-05-04 03:24 | 33.14149 | -117.80857 | 9965 ft | 338 kts | 316° |
| 2026-05-04 03:24 | 33.15987 | -117.82729 | 9965 ft | 338 kts | 316° |
| 2026-05-04 03:24 | 33.17842 | -117.84615 | 9965 ft | 338 kts | 317° |
| 2026-05-04 03:25 | 33.19910 | -117.86143 | 9971 ft | 343 kts | 334° |
| 2026-05-04 03:25 | 33.22291 | -117.86964 | 9974 ft | 347 kts | 345° |
| 2026-05-04 03:25 | 33.24707 | -117.87569 | 9969 ft | 346 kts | 345° |
| 2026-05-04 03:25 | 33.27155 | -117.88189 | 9969 ft | 346 kts | 345° |
| 2026-05-04 03:26 | 33.29583 | -117.88798 | 9970 ft | 346 kts | 345° |
| 2026-05-04 03:26 | 33.32003 | -117.89402 | 9969 ft | 346 kts | 345° |
| 2026-05-04 03:26 | 33.34453 | -117.90014 | 9968 ft | 346 kts | 345° |
| 2026-05-04 03:26 | 33.36881 | -117.90642 | 9966 ft | 346 kts | 345° |
| 2026-05-04 03:27 | 33.39290 | -117.91305 | 9963 ft | 346 kts | 341° |
| 2026-05-04 03:27 | 33.41650 | -117.92158 | 9961 ft | 345 kts | 340° |
| 2026-05-04 03:27 | 33.44009 | -117.93021 | 9957 ft | 345 kts | 340° |
| 2026-05-04 03:27 | 33.46342 | -117.93868 | 9949 ft | 333 kts | 340° |
| 2026-05-04 03:28 | 33.48555 | -117.94671 | 9947 ft | 316 kts | 340° |
| 2026-05-04 03:28 | 33.50668 | -117.95438 | 9946 ft | 300 kts | 340° |
| 2026-05-04 03:28 | 33.52675 | -117.96168 | 9945 ft | 286 kts | 339° |
| 2026-05-04 03:28 | 33.54620 | -117.96878 | 9892 ft | 285 kts | 339° |
| 2026-05-04 03:29 | 33.56604 | -117.97604 | 9442 ft | 289 kts | 340° |
| 2026-05-04 03:29 | 33.58516 | -117.98298 | 8964 ft | 273 kts | 340° |
| 2026-05-04 03:29 | 33.60353 | -117.98966 | 8488 ft | 260 kts | 339° |
| 2026-05-04 03:29 | 33.62079 | -117.99596 | 8022 ft | 249 kts | 339° |
| 2026-05-04 03:30 | 33.63769 | -118.00213 | 7551 ft | 241 kts | 339° |
| 2026-05-04 03:30 | 33.65397 | -118.00807 | 7089 ft | 237 kts | 339° |
| 2026-05-04 03:30 | 33.67005 | -118.01395 | 6941 ft | 234 kts | 339° |
| 2026-05-04 03:30 | 33.68649 | -118.01998 | 6950 ft | 239 kts | 339° |
| 2026-05-04 03:31 | 33.70289 | -118.02596 | 6944 ft | 237 kts | 339° |
| 2026-05-04 03:31 | 33.71927 | -118.03195 | 6945 ft | 237 kts | 339° |
| 2026-05-04 03:31 | 33.73558 | -118.03792 | 6944 ft | 237 kts | 339° |
| 2026-05-04 03:31 | 33.75200 | -118.04398 | 6943 ft | 237 kts | 339° |
| 2026-05-04 03:32 | 33.76819 | -118.04991 | 6943 ft | 237 kts | 339° |
| 2026-05-04 03:32 | 33.78473 | -118.05576 | 6951 ft | 238 kts | 344° |
| 2026-05-04 03:32 | 33.80182 | -118.05669 | 6930 ft | 247 kts | 10° |
| 2026-05-04 03:32 | 33.81825 | -118.04800 | 6659 ft | 252 kts | 31° |
| 2026-05-04 03:33 | 33.83381 | -118.03660 | 6346 ft | 250 kts | 22° |
| 2026-05-04 03:33 | 33.85096 | -118.03284 | 6068 ft | 244 kts | 355° |
| 2026-05-04 03:33 | 33.86863 | -118.03483 | 5765 ft | 245 kts | 352° |
| 2026-05-04 03:33 | 33.88618 | -118.03715 | 5458 ft | 246 kts | 352° |
| 2026-05-04 03:34 | 33.90327 | -118.03947 | 5133 ft | 236 kts | 352° |
| 2026-05-04 03:34 | 33.92011 | -118.04282 | 4822 ft | 234 kts | 337° |
| 2026-05-04 03:34 | 33.93334 | -118.05421 | 4548 ft | 228 kts | 303° |
| 2026-05-04 03:34 | 33.94107 | -118.07145 | 4263 ft | 225 kts | 291° |
| 2026-05-04 03:35 | 33.94663 | -118.08971 | 3951 ft | 220 kts | 274° |
| 2026-05-04 03:35 | 33.94508 | -118.10822 | 3693 ft | 216 kts | 262° |
| 2026-05-04 03:35 | 33.94568 | -118.12706 | 3677 ft | 221 kts | 271° |
| 2026-05-04 03:35 | 33.94651 | -118.14593 | 3539 ft | 216 kts | 271° |
| 2026-05-04 03:36 | 33.94765 | -118.16479 | 3583 ft | 219 kts | 273° |
| 2026-05-04 03:36 | 33.94896 | -118.18283 | 3479 ft | 201 kts | 273° |
| 2026-05-04 03:36 | 33.95020 | -118.19995 | 3092 ft | 196 kts | 273° |
| 2026-05-04 03:36 | 33.95138 | -118.21659 | 2740 ft | 189 kts | 273° |
| 2026-05-04 03:37 | 33.95246 | -118.23227 | 2479 ft | 169 kts | 270° |
| 2026-05-04 03:37 | 33.95157 | -118.24623 | 2382 ft | 164 kts | 260° |
| 2026-05-04 03:37 | 33.95000 | -118.25951 | 2157 ft | 145 kts | 261° |
| 2026-05-04 03:37 | 33.94868 | -118.27180 | 1951 ft | 143 kts | 261° |
| 2026-05-04 03:38 | 33.94738 | -118.28413 | 1749 ft | 142 kts | 261° |
| 2026-05-04 03:38 | 33.94613 | -118.29634 | 1549 ft | 141 kts | 262° |
| 2026-05-04 03:38 | 33.94490 | -118.30841 | 1352 ft | 141 kts | 262° |
| 2026-05-04 03:38 | 33.94366 | -118.32057 | 1154 ft | 141 kts | 262° |
| 2026-05-04 03:39 | 33.94243 | -118.33276 | 956 ft | 140 kts | 262° |
| 2026-05-04 03:39 | 33.94121 | -118.34483 | 760 ft | 140 kts | 262° |
| 2026-05-04 03:39 | 33.93998 | -118.35696 | 563 ft | 140 kts | 262° |
| 2026-05-04 03:39 | 33.93880 | -118.36891 | 376 ft | 138 kts | 263° |
| 2026-05-04 03:40 | 33.93768 | -118.38032 | 212 ft | 130 kts | 262° |
| 2026-05-04 03:40 | 33.93661 | -118.39116 | 127 ft | 116 kts | 262° |
| 2026-05-04 03:40 | 33.93569 | -118.40007 | 120 ft | 89 kts | 262° |
| 2026-05-04 03:40 | 33.93540 | -118.40376 | 124 ft | 27 kts | 274° |
| 2026-05-04 03:41 | 33.93571 | -118.40561 | 128 ft | 15 kts | 288° |
| 2026-05-04 03:41 | 33.93591 | -118.40675 | 130 ft | 12 kts | 278° |
| 2026-05-04 03:41 | 33.93593 | -118.40774 | 130 ft | 10 kts | 269° |
| 2026-05-04 03:41 | 33.93598 | -118.40823 | 130 ft | 0 kts | 286° |
| 2026-05-04 03:43 | 33.93598 | -118.40825 | 130 ft | 2 kts | 286° |
| 2026-05-04 03:43 | 33.93633 | -118.40884 | 130 ft | 12 kts | 334° |
| 2026-05-04 03:43 | 33.93715 | -118.40903 | 130 ft | 10 kts | 351° |
| 2026-05-04 03:43 | 33.93762 | -118.40911 | 130 ft | 0 kts | 353° |
| 2026-05-04 03:44 | 33.93763 | -118.40911 | 130 ft | 0 kts | 354° |
| 2026-05-04 03:44 | 33.93790 | -118.40862 | 130 ft | 12 kts | 78° |
| 2026-05-04 03:44 | 33.93802 | -118.40750 | 130 ft | 12 kts | 83° |
| 2026-05-04 03:45 | 33.93813 | -118.40641 | 129 ft | 12 kts | 83° |
| 2026-05-04 03:45 | 33.93825 | -118.40527 | 127 ft | 14 kts | 82° |
| 2026-05-04 03:45 | 33.93842 | -118.40390 | 124 ft | 17 kts | 81° |
| 2026-05-04 03:45 | 33.93861 | -118.40231 | 123 ft | 18 kts | 88° |
| 2026-05-04 03:46 | 33.93873 | -118.40071 | 121 ft | 18 kts | 69° |
| 2026-05-04 03:46 | 33.93983 | -118.40050 | 121 ft | 16 kts | 348° |
| 2026-05-04 03:46 | 33.94053 | -118.40118 | 122 ft | 11 kts | 277° |
| 2026-05-04 03:46 | 33.94053 | -118.40135 | 122 ft | 0 kts | 265° |